createdAt,value
2022-09-22T00:03:44.744Z,97728.63
2022-09-22T00:07:41.698Z,97719.03
2022-09-22T00:11:43.574Z,97724.94
2022-09-22T00:15:46.451Z,97720.06
2022-09-22T00:19:43.454Z,97706.03
2022-09-22T00:23:42.724Z,97730.41
2022-09-22T00:27:39.715Z,97729.06
2022-09-22T00:31:40.487Z,97731.78
2022-09-22T00:35:40.218Z,97706.19
2022-09-22T00:39:37.723Z,97731.13
2022-09-22T00:43:37.691Z,97715.78
2022-09-22T00:47:43.641Z,97733.38
2022-09-22T00:51:44.864Z,97709.22
2022-09-22T00:55:53.545Z,97706.81
2022-09-22T00:59:53.617Z,97720.75
2022-09-22T01:03:50.952Z,97711.56
2022-09-22T01:07:48.967Z,97675.19
2022-09-22T01:11:45.966Z,97714.19
2022-09-22T01:16:19.925Z,97729.78
2022-09-22T01:21:00.070Z,97716.22
2022-09-22T01:25:36.094Z,97712.16
2022-09-22T01:30:00.708Z,97708.22
2022-09-22T01:34:25.415Z,97692.53
2022-09-22T01:38:49.417Z,97705.53
2022-09-22T01:42:59.047Z,97692.06
2022-09-22T01:47:12.081Z,97703.13
2022-09-22T01:51:20.098Z,97678.59
2022-09-22T01:55:26.453Z,97683.63
2022-09-22T01:59:29.125Z,97676.69
2022-09-22T02:04:07.035Z,97702.81
2022-09-22T02:08:11.825Z,97684.59
2022-09-22T02:12:08.857Z,97692.31
2022-09-22T02:16:09.682Z,97695.22
2022-09-22T02:20:07.036Z,97677.75
2022-09-22T02:24:04.249Z,97691.63
2022-09-22T02:28:02.628Z,97669.59
2022-09-22T02:32:05.207Z,97684.28
2022-09-22T02:36:50.102Z,97674.50
2022-09-22T02:41:19.076Z,97672.91
2022-09-22T02:45:26.573Z,97663.41
2022-09-22T02:49:26.248Z,97686.50
2022-09-22T02:53:23.666Z,97685.13
2022-09-22T02:57:21.316Z,97668.78
2022-09-22T03:01:18.382Z,97682.22
2022-09-22T03:05:15.548Z,97659.88
2022-09-22T03:09:12.719Z,97664.34
2022-09-22T03:13:16.441Z,97672.78
2022-09-22T03:17:13.999Z,97686.59
2022-09-22T03:21:11.407Z,97678.22
2022-09-22T03:25:11.016Z,97671.69
2022-09-22T03:29:07.987Z,97655.22
2022-09-22T03:33:05.021Z,97660.00
2022-09-22T03:37:02.043Z,97677.69
2022-09-22T03:40:59.337Z,97666.06
2022-09-22T03:44:56.349Z,97659.16
2022-09-22T03:48:53.450Z,97668.38
2022-09-22T03:52:50.453Z,97672.13
2022-09-22T03:56:48.298Z,97668.59
2022-09-22T04:00:45.341Z,97664.53
2022-09-22T04:04:42.573Z,97668.63
2022-09-22T04:08:39.877Z,97668.50
2022-09-22T04:12:37.375Z,97671.16
2022-09-22T04:16:34.443Z,97658.31
2022-09-22T04:20:31.562Z,97666.06
2022-09-22T04:24:28.770Z,97667.91
2022-09-22T04:28:25.731Z,97661.81
2022-09-22T04:32:22.988Z,97669.13
2022-09-22T04:36:19.966Z,97659.31
2022-09-22T04:40:18.367Z,97659.31
2022-09-22T04:44:15.464Z,97658.03
2022-09-22T04:48:12.771Z,97640.00
2022-09-22T04:52:10.087Z,97669.28
2022-09-22T04:56:07.723Z,97667.91
2022-09-22T05:00:06.305Z,97664.66
2022-09-22T05:04:03.372Z,97664.25
2022-09-22T05:08:00.336Z,97679.78
2022-09-22T05:11:59.707Z,97672.88
2022-09-22T05:15:56.833Z,97660.44
2022-09-22T05:19:55.840Z,97630.91
2022-09-22T05:23:52.839Z,97660.50
2022-09-22T05:27:53.365Z,97672.50
2022-09-22T05:31:50.407Z,97668.44
2022-09-22T05:35:48.592Z,97664.25
2022-09-22T05:39:45.541Z,97672.78
2022-09-22T05:43:42.533Z,97663.91
2022-09-22T05:47:40.696Z,97657.75
2022-09-22T05:51:37.622Z,97672.97
2022-09-22T05:55:35.316Z,97682.25
2022-09-22T05:59:32.892Z,97678.50
2022-09-22T06:03:30.001Z,97675.84
2022-09-22T06:07:27.844Z,97675.84
2022-09-22T06:11:24.831Z,97676.63
2022-09-22T06:15:21.773Z,97671.03
2022-09-22T06:19:18.746Z,97663.22
2022-09-22T06:23:15.717Z,97690.31
2022-09-22T06:27:12.722Z,97685.97
2022-09-22T06:31:09.699Z,97677.97
2022-09-22T06:35:08.445Z,97686.47
2022-09-22T06:39:05.604Z,97678.00
2022-09-22T06:43:12.141Z,97688.53
2022-09-22T06:47:10.270Z,97677.91
2022-09-22T06:51:07.352Z,97664.59
2022-09-22T06:55:05.468Z,97675.38
2022-09-22T06:59:10.664Z,97676.75
2022-09-22T07:03:22.721Z,97688.53
2022-09-22T07:07:19.791Z,97654.25
2022-09-22T07:11:23.284Z,97684.53
2022-09-22T07:15:20.949Z,97675.91
2022-09-22T07:19:18.226Z,97668.38
2022-09-22T07:23:21.389Z,97683.78
2022-09-22T07:27:23.302Z,97662.50
2022-09-22T07:31:27.788Z,97682.84
2022-09-22T07:35:28.413Z,97677.81
2022-09-22T07:39:25.857Z,97678.69
2022-09-22T07:43:22.793Z,97683.59
2022-09-22T07:47:39.714Z,97679.97
2022-09-22T07:51:37.489Z,97675.84
2022-09-22T07:55:36.787Z,97663.09
2022-09-22T07:59:35.112Z,97660.78
2022-09-22T08:03:32.413Z,97675.06
2022-09-22T08:07:32.949Z,97661.03
2022-09-22T08:11:30.652Z,97668.63
2022-09-22T08:15:27.673Z,97666.63
2022-09-22T08:19:24.746Z,97656.34
2022-09-22T08:23:21.684Z,97650.50
2022-09-22T08:27:19.165Z,97649.25
2022-09-22T08:31:20.085Z,97660.25
2022-09-22T08:35:17.572Z,97644.59
2022-09-22T08:39:16.867Z,97646.91
2022-09-22T08:43:15.584Z,97659.69
2022-09-22T08:47:41.801Z,97651.06
2022-09-22T08:51:55.201Z,97647.22
2022-09-22T08:56:23.324Z,97646.22
2022-09-22T09:00:21.150Z,97643.47
2022-09-22T09:04:58.014Z,97645.66
2022-09-22T09:09:06.859Z,97651.81
2022-09-22T09:13:51.090Z,97645.75
2022-09-22T09:17:52.012Z,97641.16
2022-09-22T09:21:56.785Z,97644.06
2022-09-22T09:25:56.548Z,97644.44
2022-09-22T09:30:21.639Z,97635.44
2022-09-22T09:34:24.419Z,97640.53
2022-09-22T09:38:30.457Z,97636.31
2022-09-22T09:42:35.410Z,97638.22
2022-09-22T09:47:02.128Z,97631.34
2022-09-22T09:51:05.922Z,97629.47
2022-09-22T09:55:12.189Z,97614.59
2022-09-22T09:59:34.688Z,97614.56
2022-09-22T10:03:36.157Z,97617.38
2022-09-22T10:07:45.914Z,97609.06
2022-09-22T10:12:03.219Z,97607.25
2022-09-22T10:16:21.999Z,97593.72
2022-09-22T10:20:34.211Z,97588.63
2022-09-22T10:24:33.505Z,97593.13
2022-09-22T10:28:31.161Z,97580.81
2022-09-22T10:32:28.140Z,97594.22
2022-09-22T10:36:28.868Z,97585.59
2022-09-22T10:40:28.480Z,97585.09
2022-09-22T10:44:38.722Z,97566.84
2022-09-22T10:48:49.334Z,97586.91
2022-09-22T10:52:57.993Z,97580.72
2022-09-22T10:57:09.531Z,97593.38
2022-09-22T11:01:53.116Z,97597.00
2022-09-22T11:07:25.445Z,97577.50
2022-09-22T11:11:53.741Z,97575.03
2022-09-22T11:16:15.500Z,97590.84
2022-09-22T11:20:40.085Z,97577.56
2022-09-22T11:25:09.932Z,97579.03
2022-09-22T11:29:29.516Z,97576.75
2022-09-22T11:34:24.054Z,97565.59
2022-09-22T11:39:09.117Z,97568.19
2022-09-22T11:43:20.259Z,97554.16
2022-09-22T11:48:04.079Z,97542.81
2022-09-22T11:52:58.512Z,97542.56
2022-09-22T11:57:07.239Z,97534.84
2022-09-22T12:01:13.483Z,97533.19
2022-09-22T12:05:27.123Z,97526.31
2022-09-22T12:09:39.735Z,97513.94
2022-09-22T12:13:43.556Z,97524.63
2022-09-22T12:18:13.996Z,97519.78
2022-09-22T12:22:33.009Z,97516.31
2022-09-22T12:26:37.270Z,97498.16
2022-09-22T12:30:34.460Z,97495.53
2022-09-22T12:34:40.496Z,97500.09
2022-09-22T12:38:38.910Z,97491.75
2022-09-22T12:42:41.746Z,97505.69
2022-09-22T12:46:43.230Z,97489.34
2022-09-22T12:50:43.951Z,97492.22
2022-09-22T12:54:40.929Z,97482.56
2022-09-22T12:58:40.580Z,97485.00
2022-09-22T13:02:46.099Z,97475.34
2022-09-22T13:06:42.981Z,97488.09
2022-09-22T13:10:42.407Z,97471.25
2022-09-22T13:15:15.154Z,97473.75
2022-09-22T13:19:12.444Z,97465.38
2022-09-22T13:23:13.157Z,97471.75
2022-09-22T13:27:14.595Z,97458.06
2022-09-22T13:31:14.267Z,97466.22
2022-09-22T13:35:34.250Z,97449.25
2022-09-22T13:39:38.033Z,97456.09
2022-09-22T13:43:38.412Z,97449.59
2022-09-22T13:47:36.515Z,97433.00
2022-09-22T13:51:33.582Z,97442.88
2022-09-22T13:55:38.293Z,97432.50
2022-09-22T13:59:41.904Z,97432.81
2022-09-22T14:03:38.886Z,97416.53
2022-09-22T14:07:49.871Z,97432.47
2022-09-22T14:11:57.203Z,97425.09
2022-09-22T14:15:54.608Z,97421.97
2022-09-22T14:20:10.206Z,97424.91
2022-09-22T14:24:07.523Z,97425.22
2022-09-22T14:28:04.709Z,97422.13
2022-09-22T14:32:19.780Z,97412.84
2022-09-22T14:36:22.539Z,97410.94
2022-09-22T14:40:26.707Z,97416.56
2022-09-22T14:44:49.661Z,97427.13
2022-09-22T14:48:46.625Z,97426.34
2022-09-22T14:53:12.221Z,97417.44
2022-09-22T14:57:09.381Z,97418.34
2022-09-22T15:01:48.626Z,97427.09
2022-09-22T15:05:46.687Z,97425.22
2022-09-22T15:09:43.509Z,97410.25
2022-09-22T15:13:46.262Z,97394.13
2022-09-22T15:18:05.267Z,97418.69
2022-09-22T15:22:05.591Z,97399.13
2022-09-22T15:26:03.746Z,97413.25
2022-09-22T15:30:00.689Z,97392.56
2022-09-22T15:34:01.591Z,97411.16
2022-09-22T15:37:58.694Z,97409.47
2022-09-22T15:41:55.874Z,97405.19
2022-09-22T15:50:32.625Z,97404.16
2022-09-22T15:54:30.384Z,97387.69
2022-09-22T15:58:40.260Z,97401.13
2022-09-22T16:02:40.108Z,97389.25
2022-09-22T16:06:41.328Z,97383.28
2022-09-22T16:10:38.495Z,97393.09
2022-09-22T16:14:36.800Z,97372.16
2022-09-22T16:18:35.448Z,97386.22
2022-09-22T16:22:32.536Z,97375.63
2022-09-22T16:26:33.587Z,97371.06
2022-09-22T16:30:30.591Z,97358.19
2022-09-22T16:34:27.873Z,97384.84
2022-09-22T16:38:25.097Z,97370.63
2022-09-22T16:42:23.895Z,97374.34
2022-09-22T16:46:28.811Z,97379.06
2022-09-22T16:50:25.893Z,97349.50
2022-09-22T16:54:22.881Z,97343.22
2022-09-22T16:58:20.659Z,97373.31
2022-09-22T17:02:17.756Z,97385.13
2022-09-22T17:06:18.693Z,97382.94
2022-09-22T17:10:15.876Z,97392.50
2022-09-22T17:14:21.486Z,97382.34
2022-09-22T17:18:18.444Z,97380.72
2022-09-22T17:22:15.451Z,97383.16
2022-09-22T17:26:12.717Z,97381.50
2022-09-22T17:30:11.030Z,97384.22
2022-09-22T17:34:09.781Z,97400.47
2022-09-22T17:38:06.802Z,97379.06
2022-09-22T17:42:04.041Z,97383.63
2022-09-22T17:46:02.257Z,97381.72
2022-09-22T17:50:17.829Z,97414.69
2022-09-22T17:54:44.031Z,97404.53
2022-09-22T17:58:41.396Z,97420.22
2022-09-22T18:02:39.068Z,97410.59
2022-09-22T18:06:36.173Z,97388.63
2022-09-22T18:10:34.241Z,97388.66
2022-09-22T18:14:31.663Z,97417.13
2022-09-22T18:18:28.608Z,97387.63
2022-09-22T18:22:29.329Z,97416.59
2022-09-22T18:26:37.810Z,97415.00
2022-09-22T18:30:34.776Z,97431.09
2022-09-22T18:34:34.533Z,97390.81
2022-09-22T18:38:33.003Z,97411.19
2022-09-22T18:42:31.165Z,97428.34
2022-09-22T18:46:29.709Z,97436.94
2022-09-22T18:50:27.152Z,97395.03
2022-09-22T18:54:24.146Z,97442.78
2022-09-22T18:58:21.208Z,97412.19
2022-09-22T19:02:23.076Z,97416.41
2022-09-22T19:06:21.012Z,97407.81
2022-09-22T19:10:21.933Z,97443.47
2022-09-22T19:14:20.020Z,97414.69
2022-09-22T19:18:16.991Z,97404.97
2022-09-22T19:22:13.957Z,97438.50
2022-09-22T19:26:10.956Z,97429.50
2022-09-22T19:30:10.052Z,97426.28
2022-09-22T19:34:09.096Z,97401.56
2022-09-22T19:38:06.078Z,97414.34
2022-09-22T19:42:03.240Z,97425.09
2022-09-22T19:46:00.298Z,97410.59
2022-09-22T19:49:58.888Z,97414.69
2022-09-22T19:53:55.887Z,97429.38
2022-09-22T19:57:54.328Z,97430.59
2022-09-22T20:01:51.660Z,97439.59
2022-09-22T20:05:51.538Z,97423.97
2022-09-22T20:09:48.482Z,97398.81
2022-09-22T20:14:04.510Z,97391.41
2022-09-22T20:18:01.502Z,97412.59
2022-09-22T20:22:28.198Z,97435.69
2022-09-22T20:26:28.199Z,97430.31
2022-09-22T20:30:25.826Z,97421.69
2022-09-22T20:34:23.287Z,97442.03
2022-09-22T20:38:20.285Z,97435.72
2022-09-22T20:42:17.615Z,97434.16
2022-09-22T20:46:15.479Z,97415.59
2022-09-22T20:50:12.629Z,97401.38
2022-09-22T20:54:09.920Z,97433.75
2022-09-22T20:58:06.923Z,97413.13
2022-09-22T21:02:04.238Z,97417.19
2022-09-22T21:06:05.221Z,97440.47
2022-09-22T21:10:20.947Z,97423.19
2022-09-22T21:14:17.986Z,97433.63
2022-09-22T21:18:16.532Z,97432.88
2022-09-22T21:22:14.143Z,97407.84
2022-09-22T21:26:12.461Z,97417.06
2022-09-22T21:30:09.997Z,97387.34
2022-09-22T21:34:07.121Z,97388.28
2022-09-22T21:38:07.421Z,97413.69
2022-09-22T21:42:04.525Z,97416.09
2022-09-22T21:46:08.993Z,97429.53
2022-09-22T21:50:06.755Z,97403.81
2022-09-22T21:54:05.569Z,97446.34
2022-09-22T21:58:02.538Z,97411.41
2022-09-22T22:02:00.103Z,97416.44
2022-09-22T22:06:08.878Z,97435.81
2022-09-22T22:10:06.393Z,97409.13
2022-09-22T22:14:07.554Z,97425.00
2022-09-22T22:18:04.645Z,97417.88
2022-09-22T22:22:01.709Z,97405.69
2022-09-22T22:26:02.930Z,97392.28
2022-09-22T22:30:00.547Z,97410.56
2022-09-22T22:33:57.520Z,97420.22
2022-09-22T22:37:56.083Z,97398.72
2022-09-22T22:41:55.381Z,97379.09
2022-09-22T22:45:52.474Z,97415.00
2022-09-22T22:49:49.552Z,97410.59
2022-09-22T22:53:47.823Z,97387.00
2022-09-22T22:57:44.835Z,97367.69
2022-09-22T23:01:44.045Z,97401.75
2022-09-22T23:05:43.108Z,97396.34
2022-09-22T23:09:40.236Z,97399.94
2022-09-22T23:13:45.013Z,97396.25
2022-09-22T23:17:42.005Z,97402.50
2022-09-22T23:21:39.021Z,97404.75
2022-09-22T23:25:37.690Z,97393.41
2022-09-22T23:29:34.670Z,97375.06
2022-09-22T23:33:31.697Z,97356.13
2022-09-22T23:37:28.668Z,97397.75
2022-09-22T23:41:25.688Z,97388.75
2022-09-22T23:45:22.697Z,97362.84
2022-09-22T23:49:20.084Z,97388.53
2022-09-22T23:53:20.972Z,97392.22
2022-09-22T23:57:18.030Z,97392.78
